Time;durP1;ratioP1;P1;durP2;ratioP2;P2;SDS_P1;SDS_P2;PMS_P1;PMS_P2;Temp;Humidity;BMP_temperature;BMP_pressure;BME280_temperature;BME280_humidity;BME280_pressure;Samples;Min_cycle;Max_cycle;Signal;HPM_P1;HPM_P2
2022/09/05 00:01:19;;;;;;;15.40;14.20;;;;;;;21.08;64.72;101919.72;4998138;28;102519;-49
2022/09/05 00:03:56;;;;;;;15.75;14.65;;;;;;;21.08;64.53;101914.19;5015298;28;104033;-49
2022/09/05 00:06:25;;;;;;;14.68;13.73;;;;;;;21.07;64.58;101920.84;5023082;27;102265;-50
2022/09/05 00:08:58;;;;;;;;;;;;;;;21.08;64.51;101925.25;5017224;28;102592;-49
2022/09/05 00:11:33;;;;;;;14.82;13.93;;;;;;;21.07;64.74;101929.97;5016839;28;102469;-50
2022/09/05 00:14:17;;;;;;;16.23;15.20;;;;;;;21.06;64.41;101922.81;5016827;28;104033;-49
2022/09/05 00:16:59;;;;;;;16.00;14.90;;;;;;;21.05;64.74;101921.16;5028030;28;103755;-49
2022/09/05 00:19:42;;;;;;;15.02;13.93;;;;;;;21.07;64.57;101926.41;5033304;27;102082;-49
2022/09/05 00:22:38;;;;;;;16.40;15.30;;;;;;;21.06;65.01;101925.59;4997280;28;102617;-49
2022/09/05 00:25:27;;;;;;;14.73;13.80;;;;;;;21.06;64.73;101927.50;5009705;28;103857;-49
2022/09/05 00:28:01;;;;;;;15.90;14.80;;;;;;;21.06;64.73;101927.50;5016702;28;102211;-49
2022/09/05 00:30:38;;;;;;;15.18;14.20;;;;;;;21.07;64.68;101929.16;5009384;28;102526;-49
2022/09/05 00:33:21;;;;;;;16.27;15.07;;;;;;;21.06;64.70;101922.81;5014841;28;102705;-49
2022/09/05 00:36:00;;;;;;;14.70;13.50;;;;;;;21.06;64.61;101922.81;5013652;28;104553;-50
2022/09/05 00:38:29;;;;;;;15.32;14.32;;;;;;;21.05;64.77;101925.88;4996525;28;102237;-49
2022/09/05 00:41:00;;;;;;;16.20;15.20;;;;;;;21.06;64.60;101924.75;4995639;28;102231;-49
2022/09/05 00:43:31;;;;;;;16.88;15.73;;;;;;;21.05;64.91;101920.34;4996577;28;102656;-49
2022/09/05 00:46:00;;;;;;;15.15;14.10;;;;;;;21.05;64.75;101914.81;4996015;28;104017;-49
2022/09/05 00:48:35;;;;;;;17.15;15.98;;;;;;;21.06;64.54;101906.22;4994801;28;102203;-49
2022/09/05 00:51:15;;;;;;;15.82;14.73;;;;;;;21.06;64.65;101910.91;4975801;28;102456;-49
2022/09/05 00:53:54;;;;;;;14.85;13.95;;;;;;;21.04;64.92;101914.00;4979863;28;102167;-49
2022/09/05 00:56:46;;;;;;;14.77;13.85;;;;;;;21.04;64.80;101913.19;4995493;28;103821;-49
2022/09/05 00:59:39;;;;;;;14.45;13.43;;;;;;;21.04;64.83;101908.47;4993913;28;102229;-49
2022/09/05 01:02:16;;;;;;;14.95;13.95;;;;;;;21.05;64.83;101906.50;4990521;28;102460;-50
2022/09/05 01:04:52;;;;;;;15.32;14.23;;;;;;;21.05;64.69;101914.81;5013803;28;102305;-49
2022/09/05 01:07:38;;;;;;;13.98;13.07;;;;;;;21.04;64.84;101902.09;5000262;28;103925;-49
2022/09/05 01:10:18;;;;;;;14.73;13.63;;;;;;;21.04;64.60;101907.66;4993753;28;102055;-49
2022/09/05 01:13:04;;;;;;;15.02;14.07;;;;;;;21.05;64.68;101887.13;4995162;28;102007;-49
2022/09/05 01:15:39;;;;;;;13.43;12.63;;;;;;;21.05;64.73;101898.19;4996333;28;102428;-49
2022/09/05 01:18:22;;;;;;;16.00;14.98;;;;;;;21.05;65.15;101887.13;4990474;28;103894;-49
2022/09/05 01:21:11;;;;;;;15.55;14.55;;;;;;;21.05;65.16;101887.13;4994761;28;102393;-49
2022/09/05 01:23:50;;;;;;;14.68;13.88;;;;;;;21.03;65.04;101901.28;4988125;28;102359;-49
2022/09/05 01:26:43;;;;;;;13.45;12.52;;;;;;;21.03;65.38;101906.81;4976887;28;102291;-49
2022/09/05 01:29:20;;;;;;;14.52;13.63;;;;;;;21.04;65.08;101902.09;4982384;28;104029;-49
2022/09/05 01:32:07;;;;;;;14.25;13.45;;;;;;;21.03;65.19;101906.81;4995974;28;102053;-49
2022/09/05 01:34:46;;;;;;;14.45;13.43;;;;;;;21.03;65.04;101904.06;4984023;28;102457;-49
2022/09/05 01:37:15;;;;;;;;;;;;;;;21.04;65.20;101896.56;4991422;28;102407;-49
2022/09/05 01:39:51;;;;;;;11.63;10.82;;;;;;;21.03;64.92;101901.28;4993108;28;103870;-49
2022/09/05 01:42:35;;;;;;;13.15;12.25;;;;;;;21.04;65.04;101896.56;4988196;28;102603;-49
2022/09/05 01:45:09;;;;;;;14.82;13.88;;;;;;;21.04;65.16;101902.09;4987165;28;102669;-50
2022/09/05 01:47:48;;;;;;;14.23;13.32;;;;;;;21.02;65.75;101898.81;4994537;28;102320;-49
2022/09/05 01:50:31;;;;;;;;;;;;;;;21.03;65.23;101904.06;4994612;28;104219;-49
2022/09/05 01:53:24;;;;;;;11.80;11.00;;;;;;;21.02;65.56;101901.59;4995496;28;102283;-49
2022/09/05 01:56:25;;;;;;;12.93;12.15;;;;;;;21.02;65.45;101898.81;4994286;28;102196;-49
2022/09/05 01:59:09;;;;;;;11.75;11.05;;;;;;;21.01;65.60;101903.53;4993103;28;102319;-51
2022/09/05 02:01:54;;;;;;;13.40;12.63;;;;;;;21.02;65.30;101887.75;4990698;28;104022;-49
2022/09/05 02:04:39;;;;;;;13.55;12.75;;;;;;;21.03;65.08;101894.94;4999851;28;102324;-49
2022/09/05 02:07:16;;;;;;;12.63;11.93;;;;;;;21.03;64.95;101894.94;4995148;28;102317;-49
2022/09/05 02:10:07;;;;;;;13.98;13.15;;;;;;;21.04;65.37;101907.66;4992080;28;102809;-49
2022/09/05 02:12:43;;;;;;;14.05;13.13;;;;;;;21.03;65.31;101894.94;4992104;28;103912;-49
2022/09/05 02:15:17;;;;;;;12.73;12.02;;;;;;;21.03;65.11;101894.94;5000274;28;102510;-49
2022/09/05 02:17:51;;;;;;;14.18;13.27;;;;;;;21.03;65.29;101894.94;5012386;28;102300;-49
2022/09/05 02:20:22;;;;;;;13.63;12.82;;;;;;;21.03;65.05;101884.69;5006629;28;102278;-49
2022/09/05 02:22:59;;;;;;;14.98;14.05;;;;;;;21.02;66.31;101887.75;4997586;28;104046;-49
2022/09/05 02:25:29;;;;;;;11.88;11.05;;;;;;;21.02;65.82;101876.69;4987380;28;102149;-49
2022/09/05 02:28:03;;;;;;;15.02;14.07;;;;;;;21.02;66.05;101871.16;4996517;28;102275;-49
2022/09/05 02:30:36;;;;;;;11.55;10.82;;;;;;;21.02;65.80;101871.16;4985433;28;102134;-49
2022/09/05 02:33:18;;;;;;;13.88;13.10;;;;;;;21.02;65.46;101871.97;4995867;28;103962;-49
2022/09/05 02:35:54;;;;;;;13.80;12.80;;;;;;;21.02;65.80;101871.97;4996974;28;101959;-49
2022/09/05 02:38:28;;;;;;;14.50;13.50;;;;;;;21.02;65.46;101871.16;4995384;28;102621;-49
2022/09/05 02:40:57;;;;;;;12.07;11.35;;;;;;;21.02;65.45;101866.44;4999131;28;102339;-49
2022/09/05 02:43:31;;;;;;;13.68;12.88;;;;;;;21.02;65.59;101862.84;4996569;28;103972;-50
2022/09/05 02:46:06;;;;;;;14.25;13.45;;;;;;;21.02;65.70;101871.16;4992085;28;102872;-50
2022/09/05 02:48:48;;;;;;;12.98;12.10;;;;;;;21.02;65.67;101871.16;4978137;28;102374;-49
2022/09/05 02:51:18;;;;;;;12.77;12.07;;;;;;;21.02;65.51;101873.91;4995134;28;102676;-49
2022/09/05 02:53:51;;;;;;;13.68;12.90;;;;;;;21.01;65.87;101873.09;4997508;28;103830;-49
2022/09/05 02:56:50;;;;;;;13.02;12.23;;;;;;;21.02;65.83;101882.22;4996257;28;102452;-49
2022/09/05 02:59:37;;;;;;;12.90;12.05;;;;;;;21.01;66.17;101875.06;4995941;28;102198;-49
2022/09/05 03:02:14;;;;;;;11.90;11.10;;;;;;;21.02;65.86;101884.97;4998747;28;102162;-49
2022/09/05 03:04:49;;;;;;;12.50;11.80;;;;;;;21.01;65.90;101878.63;5006859;28;103934;-49
2022/09/05 03:07:33;;;;;;;11.45;10.68;;;;;;;21.01;65.91;101889.72;4997479;28;102384;-50
2022/09/05 03:10:21;;;;;;;13.18;12.45;;;;;;;21.01;65.81;101895.25;4994866;28;101910;-49
2022/09/05 03:13:24;;;;;;;12.67;11.93;;;;;;;21.01;65.87;101908.25;4979078;28;102247;-50
2022/09/05 03:16:23;;;;;;;12.80;12.10;;;;;;;21.01;66.10;101902.72;5011922;28;108016;-50
2022/09/05 03:19:16;;;;;;;12.45;11.70;;;;;;;21.00;66.32;101906.63;4974527;28;102864;-49
2022/09/05 03:22:34;;;;;;;12.40;11.68;;;;;;;21.00;66.34;101899.16;4997272;28;102119;-49
2022/09/05 03:25:39;;;;;;;11.90;11.20;;;;;;;20.99;66.34;101903.06;4980286;28;102014;-49
2022/09/05 03:28:35;;;;;;;11.57;10.88;;;;;;;21.00;66.25;101901.91;4993507;28;107819;-49
2022/09/05 03:31:22;;;;;;;12.85;12.15;;;;;;;21.00;66.01;101901.91;4996261;28;102701;-50
2022/09/05 03:34:37;;;;;;;12.73;12.02;;;;;;;21.01;66.13;101911.84;4995219;28;102325;-50
2022/09/05 03:37:37;;;;;;;12.98;12.23;;;;;;;21.01;65.96;101908.25;5002865;27;102322;-49
2022/09/05 03:40:39;;;;;;;13.73;12.95;;;;;;;21.01;66.02;101920.16;4976307;28;108034;-50
2022/09/05 03:43:40;;;;;;;12.55;11.77;;;;;;;21.01;65.97;101913.81;4977649;28;102365;-49
2022/09/05 03:46:23;;;;;;;14.45;13.65;;;;;;;21.01;66.10;101919.34;4996690;28;102340;-49
2022/09/05 03:49:16;;;;;;;12.80;11.93;;;;;;;21.02;66.13;101920.97;5019276;27;102322;-50
2022/09/05 03:51:51;;;;;;;12.23;11.48;;;;;;;21.02;66.31;101920.97;4978142;28;104049;-49
2022/09/05 03:54:48;;;;;;;13.85;13.05;;;;;;;21.01;66.41;101925.69;4977336;28;102213;-49
2022/09/05 03:57:43;;;;;;;13.77;12.98;;;;;;;21.01;66.21;101925.69;4985185;28;102457;-49
2022/09/05 04:00:19;;;;;;;13.93;12.85;;;;;;;21.02;66.24;101930.06;4992221;28;102508;-49
2022/09/05 04:03:00;;;;;;;13.05;12.25;;;;;;;21.01;66.27;101922.09;4995658;28;102934;-49
2022/09/05 04:05:31;;;;;;;12.48;11.88;;;;;;;21.01;66.33;101925.69;5000644;28;102436;-49
2022/09/05 04:08:05;;;;;;;14.18;13.38;;;;;;;21.02;66.26;101929.25;4993600;28;102393;-49
2022/09/05 04:10:39;;;;;;;13.45;12.55;;;;;;;21.01;66.09;101930.41;4997869;28;102377;-49
2022/09/05 04:13:16;;;;;;;13.63;12.88;;;;;;;21.01;66.38;101936.75;4995233;28;103925;-49
2022/09/05 04:15:47;;;;;;;14.30;13.43;;;;;;;21.01;66.18;101924.88;4996567;28;102290;-49
2022/09/05 04:18:26;;;;;;;14.43;13.52;;;;;;;21.01;66.07;101933.16;4994902;28;102321;-49
2022/09/05 04:21:00;;;;;;;13.10;12.30;;;;;;;21.00;66.15;101935.13;4997596;28;102296;-49
2022/09/05 04:23:41;;;;;;;12.50;11.75;;;;;;;21.00;66.68;101934.31;4984719;28;104037;-49
2022/09/05 04:26:21;;;;;;;11.65;10.95;;;;;;;21.01;66.12;101933.97;4991427;28;102839;-49
2022/09/05 04:29:02;;;;;;;12.32;11.63;;;;;;;21.01;65.86;101933.16;4993601;28;102416;-49
2022/09/05 04:31:43;;;;;;;12.70;11.95;;;;;;;21.01;66.17;101938.72;4996826;28;102330;-49
2022/09/05 04:34:39;;;;;;;14.25;13.45;;;;;;;21.00;66.44;101939.84;4995613;28;103847;-49
2022/09/05 04:37:08;;;;;;;12.35;11.65;;;;;;;21.01;66.42;101935.94;4994251;28;102625;-50
2022/09/05 04:39:35;;;;;;;12.20;11.50;;;;;;;20.99;66.36;101935.41;4993603;28;102370;-50
2022/09/05 04:42:18;;;;;;;12.63;11.93;;;;;;;20.99;66.38;101936.25;4980481;28;102315;-49
2022/09/05 04:44:50;;;;;;;11.60;11.00;;;;;;;21.00;66.17;101937.09;4989781;28;103791;-50
2022/09/05 04:47:21;;;;;;;12.50;11.75;;;;;;;21.00;66.25;101942.63;4995840;28;102447;-49
2022/09/05 04:49:56;;;;;;;13.10;12.20;;;;;;;21.00;66.34;101934.31;4995748;28;102017;-49
2022/09/05 04:52:39;;;;;;;13.20;12.50;;;;;;;21.00;66.41;101937.09;4991297;28;102235;-49
2022/09/05 04:55:09;;;;;;;13.63;12.82;;;;;;;21.00;66.23;101950.91;4988426;28;109160;-50
2022/09/05 04:57:41;;;;;;;12.63;11.73;;;;;;;21.00;66.41;101942.63;4994023;28;102626;-49
2022/09/05 05:00:14;;;;;;;12.65;11.95;;;;;;;21.00;66.11;101945.38;4993898;28;102231;-49
2022/09/05 05:02:44;;;;;;;14.30;13.50;;;;;;;20.99;66.15;101944.56;4996829;28;102192;-49
2022/09/05 05:05:18;;;;;;;14.68;13.85;;;;;;;21.00;66.11;101962.00;5006128;28;103886;-49
2022/09/05 05:07:53;;;;;;;15.25;14.40;;;;;;;21.00;66.09;101956.44;4991376;28;102652;-49
2022/09/05 05:10:27;;;;;;;15.05;14.25;;;;;;;20.99;66.03;101961.16;4976044;28;102256;-49
2022/09/05 05:13:03;;;;;;;13.75;12.93;;;;;;;20.99;66.22;101954.78;4986526;28;102390;-49
2022/09/05 05:15:33;;;;;;;13.93;13.02;;;;;;;20.99;66.15;101954.78;4994688;28;103787;-49
2022/09/05 05:18:09;;;;;;;13.35;12.55;;;;;;;21.00;65.94;101959.22;4995395;28;102626;-49
2022/09/05 05:20:43;;;;;;;16.08;15.07;;;;;;;20.98;66.14;101962.28;4994901;28;103085;-50
2022/09/05 05:23:14;;;;;;;14.65;13.75;;;;;;;20.97;66.27;101965.38;4996858;28;102217;-50
2022/09/05 05:25:46;;;;;;;13.90;13.00;;;;;;;20.97;65.89;101968.13;4988470;28;104273;-49
2022/09/05 05:28:21;;;;;;;15.43;14.43;;;;;;;20.97;66.17;101968.94;4986970;28;102153;-49
2022/09/05 05:30:49;;;;;;;14.13;12.93;;;;;;;20.96;65.86;101972.84;4981006;28;102341;-49
2022/09/05 05:33:25;;;;;;;14.93;13.77;;;;;;;20.98;65.96;101975.31;4995581;28;102199;-50
2022/09/05 05:35:55;;;;;;;14.13;13.05;;;;;;;20.98;66.20;101980.84;4985402;28;104238;-49
2022/09/05 05:38:28;;;;;;;14.85;13.85;;;;;;;20.98;65.81;101970.59;4991157;28;102446;-49
2022/09/05 05:41:03;;;;;;;13.73;12.93;;;;;;;20.97;66.19;101970.91;4979574;28;102470;-49
2022/09/05 05:43:35;;;;;;;13.02;12.23;;;;;;;20.96;65.81;101972.03;4988484;28;102277;-49
2022/09/05 05:46:04;;;;;;;12.70;11.82;;;;;;;20.98;65.71;101980.84;4987868;28;104557;-49
2022/09/05 05:48:35;;;;;;;13.52;12.63;;;;;;;20.97;65.93;101980.03;4983652;28;102094;-49
2022/09/05 05:51:18;;;;;;;13.98;13.18;;;;;;;20.96;65.63;101977.59;4986367;28;102049;-49
2022/09/05 05:53:52;;;;;;;13.98;13.07;;;;;;;20.97;65.87;101973.69;4987500;28;102128;-49
2022/09/05 05:56:48;;;;;;;14.73;13.75;;;;;;;20.97;65.46;101968.13;4979562;28;103945;-49
2022/09/05 05:59:48;;;;;;;13.88;13.00;;;;;;;20.98;65.56;101972.53;4976679;28;102653;-50
2022/09/05 06:02:50;;;;;;;12.52;11.82;;;;;;;20.99;65.21;101976.94;4974975;28;102199;-49
2022/09/05 06:06:07;;;;;;;13.23;12.20;;;;;;;21.00;65.04;101976.63;4963855;28;102518;-50
2022/09/05 06:08:50;;;;;;;12.07;11.38;;;;;;;21.00;64.88;101976.63;4971208;28;104084;-49
2022/09/05 06:11:52;;;;;;;13.73;12.88;;;;;;;21.01;64.96;101981.03;4994816;28;102315;-49
2022/09/05 06:14:52;;;;;;;13.15;12.32;;;;;;;21.02;64.82;101984.63;5011011;28;102057;-50
2022/09/05 06:18:06;;;;;;;13.82;13.02;;;;;;;21.04;64.55;101979.59;5015462;28;103507;-49
2022/09/05 06:20:56;;;;;;;13.93;13.00;;;;;;;21.04;64.62;101985.13;5003921;28;103774;-49
2022/09/05 06:24:01;;;;;;;13.82;12.82;;;;;;;21.05;64.58;101979.28;4992968;28;102204;-49
2022/09/05 06:26:55;;;;;;;15.27;14.38;;;;;;;21.09;64.33;101987.78;5010933;28;102009;-49
2022/09/05 06:29:39;;;;;;;14.38;13.40;;;;;;;21.11;64.37;102002.13;5014582;28;102398;-49
2022/09/05 06:32:17;;;;;;;15.52;14.57;;;;;;;21.12;64.24;101989.94;5013165;28;103886;-49
2022/09/05 06:35:14;;;;;;;16.60;15.60;;;;;;;21.15;64.09;101996.78;5010852;28;102034;-49
2022/09/05 06:37:47;;;;;;;13.32;12.52;;;;;;;21.15;64.03;102003.16;4988053;28;102230;-49
2022/09/05 06:40:20;;;;;;;16.10;15.07;;;;;;;21.18;63.71;102005.28;5007147;28;102328;-49
2022/09/05 06:43:06;;;;;;;16.92;16.02;;;;;;;21.18;63.75;102004.47;5007153;28;103923;-49
2022/09/05 06:46:01;;;;;;;16.25;15.13;;;;;;;21.19;63.44;102004.16;4994137;28;102361;-49
2022/09/05 06:48:36;;;;;;;15.02;14.05;;;;;;;21.21;63.65;102004.69;5006021;28;102338;-49
2022/09/05 06:51:51;;;;;;;14.75;13.90;;;;;;;21.22;63.63;102013.78;5009802;28;102254;-49
2022/09/05 06:54:47;;;;;;;15.18;14.23;;;;;;;21.21;63.66;102012.97;5004360;28;105155;-49
2022/09/05 06:57:58;;;;;;;14.27;13.50;;;;;;;21.23;63.54;102016.25;4997703;28;102359;-49
2022/09/05 07:00:32;;;;;;;15.43;14.55;;;;;;;21.26;63.37;102026.69;4983781;28;102634;-49
2022/09/05 07:03:19;;;;;;;15.82;14.93;;;;;;;21.27;63.20;102022.78;5005333;28;102684;-49
2022/09/05 07:05:53;;;;;;;13.43;12.65;;;;;;;21.29;63.10;102020.53;5012459;28;107911;-49
2022/09/05 07:08:30;;;;;;;16.00;15.10;;;;;;;21.32;63.11;102031.00;5008416;28;102429;-49
2022/09/05 07:11:02;;;;;;;16.40;15.23;;;;;;;21.34;62.82;102031.50;5016514;28;102380;-50
2022/09/05 07:13:35;;;;;;;15.48;14.50;;;;;;;21.35;63.04;102030.41;5012400;28;102641;-50
2022/09/05 07:16:12;;;;;;;17.55;16.60;;;;;;;21.35;62.74;102027.63;5007351;28;104163;-49
2022/09/05 07:18:44;;;;;;;17.60;16.60;;;;;;;21.35;62.93;102024.06;5007691;28;102748;-49
2022/09/05 07:21:19;;;;;;;16.65;15.75;;;;;;;21.34;62.77;102030.69;5011691;28;102166;-49
2022/09/05 07:23:52;;;;;;;15.93;15.02;;;;;;;21.34;63.07;102025.97;5004740;28;102616;-50
2022/09/05 07:26:22;;;;;;;14.98;14.07;;;;;;;21.35;63.14;102029.59;5003022;28;103998;-49
2022/09/05 07:28:57;;;;;;;13.75;12.95;;;;;;;21.37;63.07;102034.81;5008476;28;102554;-49
2022/09/05 07:31:26;;;;;;;15.55;14.60;;;;;;;21.36;62.94;102028.44;5012668;28;102425;-50
2022/09/05 07:34:08;;;;;;;14.95;14.15;;;;;;;21.37;62.93;102026.50;5019961;28;102418;-49
2022/09/05 07:36:40;;;;;;;16.13;15.18;;;;;;;21.37;62.97;102030.06;5015440;27;103789;-49
2022/09/05 07:39:11;;;;;;;16.48;15.57;;;;;;;21.39;63.02;102029.78;5015598;28;102287;-50
2022/09/05 07:41:43;;;;;;;16.42;15.63;;;;;;;21.38;63.14;102020.63;4995118;28;102284;-50
2022/09/05 07:44:20;;;;;;;15.63;14.82;;;;;;;21.38;62.80;102028.94;4992585;28;102310;-50
2022/09/05 07:46:53;;;;;;;15.70;14.90;;;;;;;21.40;62.77;102014.78;4988523;28;103936;-49
2022/09/05 07:49:26;;;;;;;14.95;14.15;;;;;;;21.40;62.39;102023.91;4980466;28;102321;-50
2022/09/05 07:51:55;;;;;;;18.20;17.30;;;;;;;21.42;62.30;102018.06;4995257;28;102051;-49
2022/09/05 07:54:26;;;;;;;14.65;13.90;;;;;;;21.42;62.21;102013.34;4998888;28;102933;-49
2022/09/05 07:56:56;;;;;;;15.57;14.57;;;;;;;21.43;62.31;102003.09;4990886;28;104411;-49
2022/09/05 07:59:27;;;;;;;15.88;14.95;;;;;;;21.43;62.36;102003.09;4993474;28;103752;-50
2022/09/05 08:01:55;;;;;;;17.42;16.35;;;;;;;21.47;62.26;102004.09;4991447;28;101950;-49
2022/09/05 08:04:25;;;;;;;15.85;15.05;;;;;;;21.47;62.01;102012.41;5000981;28;102163;-49
2022/09/05 08:06:53;;;;;;;14.60;13.90;;;;;;;21.46;62.08;102008.81;4990113;28;104107;-49
2022/09/05 08:09:25;;;;;;;15.30;14.50;;;;;;;21.48;61.14;102008.50;4983885;28;102431;-49
2022/09/05 08:11:57;;;;;;;17.52;16.63;;;;;;;21.48;61.21;101994.66;4985230;28;104411;-50
2022/09/05 08:14:42;;;;;;;16.45;15.60;;;;;;;21.50;61.30;101995.16;4985114;28;102192;-49
2022/09/05 08:17:13;;;;;;;14.68;13.93;;;;;;;21.51;60.80;101997.59;4987845;28;104019;-49
2022/09/05 08:19:55;;;;;;;16.45;15.55;;;;;;;21.51;60.89;101996.78;4986174;28;102390;-49
2022/09/05 08:22:27;;;;;;;14.35;13.65;;;;;;;21.52;60.48;102001.19;4981962;28;102197;-49
2022/09/05 08:25:01;;;;;;;18.23;17.33;;;;;;;21.52;60.59;101992.88;4987719;28;102144;-49
2022/09/05 08:27:36;;;;;;;15.75;14.75;;;;;;;21.53;60.27;102000.91;4992817;28;103913;-48
2022/09/05 08:30:09;;;;;;;15.27;14.38;;;;;;;21.55;60.66;102000.56;4990487;28;102491;-49
2022/09/05 08:32:40;;;;;;;16.23;15.32;;;;;;;21.55;60.85;102001.38;4992642;28;102376;-49
2022/09/05 08:35:16;;;;;;;16.10;15.15;;;;;;;21.52;60.80;102004.78;4990079;28;102407;-49
2022/09/05 08:37:43;;;;;;;15.00;14.18;;;;;;;21.52;61.12;101996.47;5002479;28;103932;-49
2022/09/05 08:40:24;;;;;;;18.27;17.27;;;;;;;21.53;61.20;101992.59;4989245;28;102302;-49
2022/09/05 08:43:21;;;;;;;15.20;14.32;;;;;;;21.55;61.22;101989.50;4975895;28;101982;-49
2022/09/05 08:45:51;;;;;;;;;;;;;;;21.53;61.36;101991.75;4989317;28;102323;-49
2022/09/05 08:48:30;;;;;;;12.75;12.02;;;;;;;21.49;61.46;101990.75;4986393;28;104028;-49
2022/09/05 08:51:15;;;;;;;13.85;13.15;;;;;;;21.47;61.35;101993.03;4993565;28;102109;-48
2022/09/05 08:54:04;;;;;;;15.55;14.73;;;;;;;21.46;61.59;101991.41;4976956;28;102294;-49
2022/09/05 08:56:38;;;;;;;15.07;14.30;;;;;;;21.48;61.69;101989.94;4992486;28;102914;-48
2022/09/05 08:59:23;;;;;;;14.60;13.90;;;;;;;21.48;61.47;101994.66;4992406;28;104105;-48
2022/09/05 09:02:04;;;;;;;14.82;14.00;;;;;;;21.49;61.46;101991.59;4985506;28;102307;-49
2022/09/05 09:04:40;;;;;;;14.80;13.85;;;;;;;21.52;60.83;101990.13;4990913;28;102275;-48
2022/09/05 09:07:15;;;;;;;14.88;13.90;;;;;;;21.52;60.77;101987.34;4982258;28;102176;-48
2022/09/05 09:09:52;;;;;;;15.48;14.52;;;;;;;21.52;60.64;101981.81;5000848;28;107978;-48
2022/09/05 09:12:46;;;;;;;14.93;14.18;;;;;;;21.52;60.74;101973.50;4987110;28;103630;-48
2022/09/05 09:15:19;;;;;;;16.60;15.70;;;;;;;21.50;60.97;101982.13;4991251;28;102212;-49
2022/09/05 09:18:12;;;;;;;16.30;15.40;;;;;;;21.49;61.08;101976.88;4985612;28;101993;-48
2022/09/05 09:20:47;;;;;;;14.32;13.63;;;;;;;21.48;61.38;101970.53;4982507;28;103953;-48
2022/09/05 09:23:29;;;;;;;16.02;15.00;;;;;;;21.47;61.21;101981.94;4992400;28;102018;-48
2022/09/05 09:26:09;;;;;;;14.88;13.93;;;;;;;21.48;61.21;101975.25;4992149;28;102316;-49
2022/09/05 09:28:49;;;;;;;13.80;13.00;;;;;;;21.48;61.41;101972.50;4991793;28;102908;-49
2022/09/05 09:31:26;;;;;;;15.20;14.40;;;;;;;21.48;61.06;101966.94;4986031;28;103614;-52
2022/09/05 09:34:10;;;;;;;16.45;15.55;;;;;;;21.48;60.89;101964.19;4974746;28;102149;-48
2022/09/05 09:37:07;;;;;;;15.70;14.90;;;;;;;21.49;60.82;101957.50;4978864;28;102029;-48
2022/09/05 09:39:53;;;;;;;14.93;14.13;;;;;;;21.50;60.89;101968.28;4976511;28;102091;-48
2022/09/05 09:42:48;;;;;;;14.35;13.65;;;;;;;21.49;60.96;101963.03;4985636;28;102691;-48
2022/09/05 09:45:24;;;;;;;16.73;15.80;;;;;;;21.46;61.09;101958.16;4985765;28;102273;-48
2022/09/05 09:48:12;;;;;;;15.27;14.48;;;;;;;21.43;61.48;101967.09;4983819;28;102222;-48
2022/09/05 09:51:00;;;;;;;14.70;13.90;;;;;;;21.42;61.18;101968.19;4989521;28;102620;-48
2022/09/05 09:53:54;;;;;;;15.75;14.85;;;;;;;21.40;61.20;101967.72;4986629;28;108083;-48
2022/09/05 09:56:42;;;;;;;14.40;13.70;;;;;;;21.40;61.58;101960.22;4986987;28;102306;-48
2022/09/05 09:59:31;;;;;;;16.13;15.33;;;;;;;21.41;61.45;101959.09;4985587;28;102323;-48
2022/09/05 10:02:21;;;;;;;15.05;14.25;;;;;;;21.42;61.43;101954.34;4985777;28;101977;-48
2022/09/05 10:05:14;;;;;;;13.30;12.60;;;;;;;21.39;61.64;101957.78;4985424;28;103924;-49
2022/09/05 10:08:12;;;;;;;14.48;13.68;;;;;;;21.39;61.45;101952.25;4980213;28;102704;-48
2022/09/05 10:11:08;;;;;;;13.07;12.40;;;;;;;21.38;60.95;101956.13;4981856;28;102387;-48
2022/09/05 10:13:56;;;;;;;12.52;11.82;;;;;;;21.35;61.37;101952.88;4991799;28;102485;-48
2022/09/05 10:16:46;;;;;;;13.97;13.20;;;;;;;21.35;61.42;101952.06;4974224;28;103870;-48
2022/09/05 10:19:42;;;;;;;13.73;12.68;;;;;;;21.37;61.46;101948.97;4990618;28;104207;-48
2022/09/05 10:22:23;;;;;;;13.02;12.32;;;;;;;21.39;61.16;101952.25;4987175;28;102217;-48
2022/09/05 10:25:22;;;;;;;14.40;13.60;;;;;;;21.38;61.39;101942.28;4991429;28;102272;-48
2022/09/05 10:27:55;;;;;;;;;;;;;;;21.37;61.50;101935.13;4985219;28;103889;-48
2022/09/05 10:30:27;;;;;;;13.00;12.35;;;;;;;21.35;61.57;101939.03;4987130;28;102817;-48
2022/09/05 10:33:15;;;;;;;15.13;14.15;;;;;;;21.33;61.44;101930.19;4993491;28;101988;-48
2022/09/05 10:35:44;;;;;;;;;;;;;;;21.33;61.70;101932.13;4993238;28;102466;-48
2022/09/05 10:38:15;;;;;;;11.93;11.35;;;;;;;21.33;61.55;101932.13;4984867;28;103859;-48
2022/09/05 10:40:50;;;;;;;13.13;12.43;;;;;;;21.29;61.27;101929.16;4991627;28;102721;-48
2022/09/05 10:43:22;;;;;;;12.95;12.25;;;;;;;21.27;60.51;101939.72;4992902;28;102449;-48
2022/09/05 10:46:00;;;;;;;15.00;14.20;;;;;;;21.28;60.39;101937.81;4986898;28;102482;-48
2022/09/05 10:48:34;;;;;;;14.80;14.07;;;;;;;21.27;60.29;101934.19;4991273;28;104211;-48
2022/09/05 10:51:14;;;;;;;14.20;13.50;;;;;;;21.27;60.61;101934.19;4998051;28;102373;-48
2022/09/05 10:53:49;;;;;;;14.63;13.82;;;;;;;21.26;60.87;101938.09;4990926;28;103598;-48
2022/09/05 10:56:23;;;;;;;14.52;13.75;;;;;;;21.27;60.71;101934.19;4978657;28;102397;-48
2022/09/05 10:59:00;;;;;;;14.23;13.52;;;;;;;21.27;60.60;101933.38;4992821;28;103921;-48
2022/09/05 11:01:38;;;;;;;14.02;13.25;;;;;;;21.28;60.22;101923.97;4994731;28;102445;-48
2022/09/05 11:04:12;;;;;;;14.35;13.63;;;;;;;21.30;60.30;101913.38;4997568;28;102316;-49
2022/09/05 11:06:56;;;;;;;15.30;14.52;;;;;;;21.29;60.37;101915.31;5012799;28;102208;-48
2022/09/05 11:09:37;;;;;;;13.85;13.05;;;;;;;21.30;60.39;101914.19;4993372;28;103947;-48
2022/09/05 11:12:18;;;;;;;14.82;14.02;;;;;;;21.28;60.60;101916.47;4989059;28;102657;-48
2022/09/05 11:14:50;;;;;;;13.88;13.18;;;;;;;21.28;60.70;101912.88;4998459;28;102001;-48
2022/09/05 11:17:28;;;;;;;13.85;13.15;;;;;;;21.27;60.87;101912.03;4997475;28;103217;-48
2022/09/05 11:20:25;;;;;;;14.43;13.65;;;;;;;21.26;60.90;101915.94;4994002;28;103981;-48
2022/09/05 11:22:59;;;;;;;12.77;12.18;;;;;;;21.24;61.31;101912.69;4990484;28;102540;-48
2022/09/05 11:25:28;;;;;;;14.38;13.65;;;;;;;21.23;61.11;101908.28;4995863;28;103058;-48
2022/09/05 11:28:04;;;;;;;14.73;14.00;;;;;;;21.23;61.13;101907.44;4994034;28;102493;-48
2022/09/05 11:30:39;;;;;;;14.52;13.65;;;;;;;21.23;61.13;101905.50;4994932;28;104028;-48
2022/09/05 11:33:14;;;;;;;14.27;13.57;;;;;;;21.21;61.43;101896.72;4996839;28;102525;-48
2022/09/05 11:35:45;;;;;;;13.98;13.27;;;;;;;21.22;61.48;101898.34;5003109;28;102004;-48
2022/09/05 11:38:34;;;;;;;14.10;13.40;;;;;;;21.22;61.43;101890.03;4995293;28;102075;-48
2022/09/05 11:41:51;;;;;;;16.42;15.52;;;;;;;21.22;61.67;101876.19;4986411;28;105522;-48
2022/09/05 11:44:35;;;;;;;14.10;13.20;;;;;;;21.24;61.50;101879.47;4899564;28;102389;-48
2022/09/05 11:47:35;;;;;;;13.30;12.60;;;;;;;21.23;61.40;101877.81;4910797;28;102114;-49
2022/09/05 11:50:37;;;;;;;14.85;14.05;;;;;;;21.22;61.48;101876.19;4980848;28;102638;-49
2022/09/05 11:53:45;;;;;;;13.07;12.38;;;;;;;21.20;61.69;101867.38;4982477;28;104162;-48
2022/09/05 11:56:49;;;;;;;13.77;13.07;;;;;;;21.20;61.26;101867.38;4937100;28;102590;-48
2022/09/05 11:59:46;;;;;;;15.38;14.45;;;;;;;21.21;60.68;101866.25;4987906;28;102237;-48
2022/09/05 12:02:37;;;;;;;15.68;14.88;;;;;;;21.20;61.00;101867.38;4973598;28;102350;-48
2022/09/05 12:05:31;;;;;;;13.63;12.93;;;;;;;21.19;61.25;101860.19;4986980;28;103895;-48
2022/09/05 12:08:05;;;;;;;13.02;12.32;;;;;;;21.19;61.34;101856.63;4977229;28;102140;-49